sensor_id;sensor_type;location;lat;lon;timestamp;P1;durP1;ratioP1;P2;durP2;ratioP2
27424;SDS011;15244;49.088;11.886;2022-08-04T00:04:38;1.42;;;1.33;;
27424;SDS011;15244;49.088;11.886;2022-08-04T00:09:59;1.35;;;1.23;;
27424;SDS011;15244;49.088;11.886;2022-08-04T00:15:04;2.47;;;1.02;;
27424;SDS011;15244;49.088;11.886;2022-08-04T00:20:06;1.33;;;1.20;;
27424;SDS011;15244;49.088;11.886;2022-08-04T00:25:10;1.00;;;1.00;;
27424;SDS011;15244;49.088;11.886;2022-08-04T00:30:12;2.45;;;1.15;;
27424;SDS011;15244;49.088;11.886;2022-08-04T00:35:15;0.90;;;0.90;;
27424;SDS011;15244;49.088;11.886;2022-08-04T00:40:27;1.15;;;1.02;;
27424;SDS011;15244;49.088;11.886;2022-08-04T01:02:36;1.67;;;0.93;;
27424;SDS011;15244;49.088;11.886;2022-08-04T01:07:50;1.05;;;1.00;;
27424;SDS011;15244;49.088;11.886;2022-08-04T01:18:21;0.93;;;0.93;;
27424;SDS011;15244;49.088;11.886;2022-08-04T01:34:17;1.48;;;1.30;;
27424;SDS011;15244;49.088;11.886;2022-08-04T01:39:22;0.90;;;0.90;;
27424;SDS011;15244;49.088;11.886;2022-08-04T01:44:43;2.40;;;1.50;;
27424;SDS011;15244;49.088;11.886;2022-08-04T01:49:50;1.40;;;1.30;;
27424;SDS011;15244;49.088;11.886;2022-08-04T01:54:55;1.20;;;1.10;;
27424;SDS011;15244;49.088;11.886;2022-08-04T01:59:58;5.20;;;1.50;;
27424;SDS011;15244;49.088;11.886;2022-08-04T02:05:04;1.40;;;1.30;;
27424;SDS011;15244;49.088;11.886;2022-08-04T02:10:07;1.50;;;1.40;;
27424;SDS011;15244;49.088;11.886;2022-08-04T02:15:29;1.23;;;1.13;;
27424;SDS011;15244;49.088;11.886;2022-08-04T02:20:43;1.00;;;1.00;;
27424;SDS011;15244;49.088;11.886;2022-08-04T02:25:53;1.20;;;1.20;;
27424;SDS011;15244;49.088;11.886;2022-08-04T02:31:02;1.35;;;1.20;;
27424;SDS011;15244;49.088;11.886;2022-08-04T02:36:14;1.80;;;1.00;;
27424;SDS011;15244;49.088;11.886;2022-08-04T02:41:23;1.30;;;1.20;;
27424;SDS011;15244;49.088;11.886;2022-08-04T02:46:28;1.38;;;1.27;;
27424;SDS011;15244;49.088;11.886;2022-08-04T02:51:34;1.58;;;1.48;;
27424;SDS011;15244;49.088;11.886;2022-08-04T02:56:38;2.35;;;1.15;;
27424;SDS011;15244;49.088;11.886;2022-08-04T03:01:41;1.73;;;1.63;;
27424;SDS011;15244;49.088;11.886;2022-08-04T03:45:16;1.52;;;1.42;;
27424;SDS011;15244;49.088;11.886;2022-08-04T03:50:40;1.63;;;1.52;;
27424;SDS011;15244;49.088;11.886;2022-08-04T04:07:49;1.40;;;1.40;;
27424;SDS011;15244;49.088;11.886;2022-08-04T04:30:04;1.52;;;1.40;;
27424;SDS011;15244;49.088;11.886;2022-08-04T04:41:01;1.88;;;1.77;;
27424;SDS011;15244;49.088;11.886;2022-08-04T04:46:12;2.05;;;1.45;;
27424;SDS011;15244;49.088;11.886;2022-08-04T05:08:04;1.67;;;1.52;;
27424;SDS011;15244;49.088;11.886;2022-08-04T05:13:33;1.35;;;1.35;;
27424;SDS011;15244;49.088;11.886;2022-08-04T05:24:39;3.35;;;1.30;;
27424;SDS011;15244;49.088;11.886;2022-08-04T05:35:19;1.15;;;1.15;;
27424;SDS011;15244;49.088;11.886;2022-08-04T05:40:48;1.60;;;1.50;;
27424;SDS011;15244;49.088;11.886;2022-08-04T05:45:51;1.50;;;1.40;;
27424;SDS011;15244;49.088;11.886;2022-08-04T05:50:55;1.60;;;1.50;;
27424;SDS011;15244;49.088;11.886;2022-08-04T05:56:02;1.85;;;1.70;;
27424;SDS011;15244;49.088;11.886;2022-08-04T06:01:06;1.27;;;1.27;;
27424;SDS011;15244;49.088;11.886;2022-08-04T06:06:10;2.28;;;1.30;;
27424;SDS011;15244;49.088;11.886;2022-08-04T06:11:14;2.92;;;1.63;;
27424;SDS011;15244;49.088;11.886;2022-08-04T06:16:22;2.25;;;1.38;;
27424;SDS011;15244;49.088;11.886;2022-08-04T06:21:30;2.65;;;1.50;;
27424;SDS011;15244;49.088;11.886;2022-08-04T06:26:33;4.60;;;1.50;;
27424;SDS011;15244;49.088;11.886;2022-08-04T06:31:36;2.08;;;1.38;;
27424;SDS011;15244;49.088;11.886;2022-08-04T06:37:17;1.42;;;1.33;;
27424;SDS011;15244;49.088;11.886;2022-08-04T06:42:41;1.10;;;1.10;;
27424;SDS011;15244;49.088;11.886;2022-08-04T06:47:44;1.70;;;1.60;;
27424;SDS011;15244;49.088;11.886;2022-08-04T06:52:48;1.30;;;1.30;;
27424;SDS011;15244;49.088;11.886;2022-08-04T06:57:50;1.35;;;1.35;;
27424;SDS011;15244;49.088;11.886;2022-08-04T07:02:54;1.60;;;1.50;;
27424;SDS011;15244;49.088;11.886;2022-08-04T07:07:56;1.38;;;1.27;;
27424;SDS011;15244;49.088;11.886;2022-08-04T07:12:59;1.33;;;1.30;;
27424;SDS011;15244;49.088;11.886;2022-08-04T07:18:02;1.30;;;1.20;;
27424;SDS011;15244;49.088;11.886;2022-08-04T07:23:05;1.30;;;1.30;;
27424;SDS011;15244;49.088;11.886;2022-08-04T07:28:08;1.83;;;1.40;;
27424;SDS011;15244;49.088;11.886;2022-08-04T07:33:10;1.23;;;1.13;;
27424;SDS011;15244;49.088;11.886;2022-08-04T07:38:12;1.52;;;1.27;;
27424;SDS011;15244;49.088;11.886;2022-08-04T07:43:17;1.50;;;1.40;;
27424;SDS011;15244;49.088;11.886;2022-08-04T07:48:19;1.23;;;1.20;;
27424;SDS011;15244;49.088;11.886;2022-08-04T07:53:24;1.48;;;1.38;;
27424;SDS011;15244;49.088;11.886;2022-08-04T07:58:47;1.52;;;1.42;;
27424;SDS011;15244;49.088;11.886;2022-08-04T08:03:51;1.30;;;1.30;;
27424;SDS011;15244;49.088;11.886;2022-08-04T08:08:57;1.23;;;1.13;;
27424;SDS011;15244;49.088;11.886;2022-08-04T08:14:13;1.20;;;1.13;;
27424;SDS011;15244;49.088;11.886;2022-08-04T08:19:16;2.45;;;1.15;;
27424;SDS011;15244;49.088;11.886;2022-08-04T08:24:18;1.60;;;1.50;;
27424;SDS011;15244;49.088;11.886;2022-08-04T08:29:20;1.50;;;1.40;;
27424;SDS011;15244;49.088;11.886;2022-08-04T08:34:22;1.23;;;1.13;;
27424;SDS011;15244;49.088;11.886;2022-08-04T08:39:47;1.45;;;1.35;;
27424;SDS011;15244;49.088;11.886;2022-08-04T08:50:58;1.67;;;1.15;;
27424;SDS011;15244;49.088;11.886;2022-08-04T09:17:10;1.80;;;1.30;;
27424;SDS011;15244;49.088;11.886;2022-08-04T09:22:24;1.10;;;1.10;;
27424;SDS011;15244;49.088;11.886;2022-08-04T09:27:37;1.00;;;1.00;;
27424;SDS011;15244;49.088;11.886;2022-08-04T09:38:03;1.65;;;1.55;;
27424;SDS011;15244;49.088;11.886;2022-08-04T09:43:46;1.15;;;1.15;;
27424;SDS011;15244;49.088;11.886;2022-08-04T09:55:06;1.00;;;1.00;;
27424;SDS011;15244;49.088;11.886;2022-08-04T10:00:14;1.00;;;1.00;;
27424;SDS011;15244;49.088;11.886;2022-08-04T10:05:20;0.80;;;0.80;;
27424;SDS011;15244;49.088;11.886;2022-08-04T10:27:17;0.90;;;0.90;;
27424;SDS011;15244;49.088;11.886;2022-08-04T10:32:40;0.88;;;0.88;;
27424;SDS011;15244;49.088;11.886;2022-08-04T10:37:54;1.63;;;0.88;;
27424;SDS011;15244;49.088;11.886;2022-08-04T10:43:18;1.17;;;1.13;;
27424;SDS011;15244;49.088;11.886;2022-08-04T10:53:48;1.20;;;1.00;;
27424;SDS011;15244;49.088;11.886;2022-08-04T10:58:59;0.95;;;0.95;;
27424;SDS011;15244;49.088;11.886;2022-08-04T11:04:06;1.67;;;1.20;;
27424;SDS011;15244;49.088;11.886;2022-08-04T11:09:13;0.68;;;0.68;;
27424;SDS011;15244;49.088;11.886;2022-08-04T11:14:26;1.65;;;1.00;;
27424;SDS011;15244;49.088;11.886;2022-08-04T11:19:45;1.00;;;1.00;;
27424;SDS011;15244;49.088;11.886;2022-08-04T11:25:03;1.00;;;1.00;;
27424;SDS011;15244;49.088;11.886;2022-08-04T11:30:21;1.77;;;1.67;;
27424;SDS011;15244;49.088;11.886;2022-08-04T11:35:42;0.85;;;0.85;;
27424;SDS011;15244;49.088;11.886;2022-08-04T11:40:49;0.90;;;0.90;;
27424;SDS011;15244;49.088;11.886;2022-08-04T11:46:06;1.00;;;1.00;;
27424;SDS011;15244;49.088;11.886;2022-08-04T11:51:13;0.82;;;0.82;;
27424;SDS011;15244;49.088;11.886;2022-08-04T11:56:16;0.70;;;0.70;;
27424;SDS011;15244;49.088;11.886;2022-08-04T12:07:12;1.00;;;0.80;;
27424;SDS011;15244;49.088;11.886;2022-08-04T12:18:06;0.73;;;0.73;;
27424;SDS011;15244;49.088;11.886;2022-08-04T12:23:23;1.30;;;0.90;;
27424;SDS011;15244;49.088;11.886;2022-08-04T12:34:03;0.80;;;0.80;;
27424;SDS011;15244;49.088;11.886;2022-08-04T12:39:16;1.25;;;0.93;;
27424;SDS011;15244;49.088;11.886;2022-08-04T12:44:20;0.98;;;0.77;;
27424;SDS011;15244;49.088;11.886;2022-08-04T12:49:40;1.05;;;0.90;;
27424;SDS011;15244;49.088;11.886;2022-08-04T12:55:01;0.90;;;0.90;;
27424;SDS011;15244;49.088;11.886;2022-08-04T13:00:06;0.90;;;0.90;;
27424;SDS011;15244;49.088;11.886;2022-08-04T13:05:10;0.85;;;0.85;;
27424;SDS011;15244;49.088;11.886;2022-08-04T13:10:19;0.90;;;0.90;;
27424;SDS011;15244;49.088;11.886;2022-08-04T13:15:30;0.70;;;0.70;;
27424;SDS011;15244;49.088;11.886;2022-08-04T13:20:53;0.80;;;0.80;;
27424;SDS011;15244;49.088;11.886;2022-08-04T13:25:57;0.70;;;0.70;;
27424;SDS011;15244;49.088;11.886;2022-08-04T13:31:20;1.17;;;0.82;;
27424;SDS011;15244;49.088;11.886;2022-08-04T13:36:24;1.10;;;1.00;;
27424;SDS011;15244;49.088;11.886;2022-08-04T13:41:27;0.70;;;0.70;;
27424;SDS011;15244;49.088;11.886;2022-08-04T13:46:44;0.90;;;0.90;;
27424;SDS011;15244;49.088;11.886;2022-08-04T13:51:52;0.70;;;0.70;;
27424;SDS011;15244;49.088;11.886;2022-08-04T13:56:59;1.55;;;1.00;;
27424;SDS011;15244;49.088;11.886;2022-08-04T14:02:04;0.82;;;0.82;;
27424;SDS011;15244;49.088;11.886;2022-08-04T14:07:12;0.80;;;0.80;;
27424;SDS011;15244;49.088;11.886;2022-08-04T14:12:21;3.30;;;0.98;;
27424;SDS011;15244;49.088;11.886;2022-08-04T14:17:44;0.70;;;0.70;;
27424;SDS011;15244;49.088;11.886;2022-08-04T14:22:51;0.90;;;0.90;;
27424;SDS011;15244;49.088;11.886;2022-08-04T14:28:01;0.90;;;0.90;;
27424;SDS011;15244;49.088;11.886;2022-08-04T14:33:04;1.10;;;0.77;;
27424;SDS011;15244;49.088;11.886;2022-08-04T14:38:44;1.70;;;0.80;;
27424;SDS011;15244;49.088;11.886;2022-08-04T14:44:01;1.35;;;0.80;;
27424;SDS011;15244;49.088;11.886;2022-08-04T14:49:08;0.97;;;0.80;;
27424;SDS011;15244;49.088;11.886;2022-08-04T14:54:13;0.80;;;0.80;;
27424;SDS011;15244;49.088;11.886;2022-08-04T14:59:19;0.82;;;0.80;;
27424;SDS011;15244;49.088;11.886;2022-08-04T15:04:22;0.73;;;0.73;;
27424;SDS011;15244;49.088;11.886;2022-08-04T15:09:26;1.02;;;0.98;;
27424;SDS011;15244;49.088;11.886;2022-08-04T15:14:29;0.82;;;0.70;;
27424;SDS011;15244;49.088;11.886;2022-08-04T15:19:38;0.70;;;0.68;;
27424;SDS011;15244;49.088;11.886;2022-08-04T15:24:56;0.80;;;0.80;;
27424;SDS011;15244;49.088;11.886;2022-08-04T15:29:59;1.30;;;0.80;;
27424;SDS011;15244;49.088;11.886;2022-08-04T15:35:10;1.50;;;0.90;;
27424;SDS011;15244;49.088;11.886;2022-08-04T15:40:18;1.20;;;0.77;;
27424;SDS011;15244;49.088;11.886;2022-08-04T15:45:47;1.23;;;0.85;;
27424;SDS011;15244;49.088;11.886;2022-08-04T15:51:11;0.65;;;0.65;;
27424;SDS011;15244;49.088;11.886;2022-08-04T16:01:28;0.70;;;0.70;;
27424;SDS011;15244;49.088;11.886;2022-08-04T16:11:37;0.70;;;0.55;;
27424;SDS011;15244;49.088;11.886;2022-08-04T16:21:46;0.80;;;0.80;;
27424;SDS011;15244;49.088;11.886;2022-08-04T16:26:51;1.38;;;0.85;;
27424;SDS011;15244;49.088;11.886;2022-08-04T16:37:05;2.60;;;0.63;;
27424;SDS011;15244;49.088;11.886;2022-08-04T16:52:51;2.05;;;0.70;;
27424;SDS011;15244;49.088;11.886;2022-08-04T16:57:55;0.90;;;0.90;;
27424;SDS011;15244;49.088;11.886;2022-08-04T17:03:03;1.30;;;0.90;;
27424;SDS011;15244;49.088;11.886;2022-08-04T17:08:06;0.75;;;0.75;;
27424;SDS011;15244;49.088;11.886;2022-08-04T17:13:34;1.15;;;1.00;;
27424;SDS011;15244;49.088;11.886;2022-08-04T17:19:00;0.80;;;0.80;;
27424;SDS011;15244;49.088;11.886;2022-08-04T17:24:03;0.70;;;0.70;;
27424;SDS011;15244;49.088;11.886;2022-08-04T17:29:17;3.58;;;0.93;;
27424;SDS011;15244;49.088;11.886;2022-08-04T17:34:20;1.25;;;0.70;;
27424;SDS011;15244;49.088;11.886;2022-08-04T17:39:26;0.77;;;0.77;;
27424;SDS011;15244;49.088;11.886;2022-08-04T17:44:38;0.80;;;0.80;;
27424;SDS011;15244;49.088;11.886;2022-08-04T17:49:40;1.63;;;0.75;;
27424;SDS011;15244;49.088;11.886;2022-08-04T17:54:59;1.65;;;0.80;;
27424;SDS011;15244;49.088;11.886;2022-08-04T18:00:03;1.63;;;0.90;;
27424;SDS011;15244;49.088;11.886;2022-08-04T18:05:26;0.75;;;0.75;;
27424;SDS011;15244;49.088;11.886;2022-08-04T18:10:52;1.35;;;0.98;;
27424;SDS011;15244;49.088;11.886;2022-08-04T18:16:03;1.00;;;1.00;;
27424;SDS011;15244;49.088;11.886;2022-08-04T18:21:22;1.65;;;0.77;;
27424;SDS011;15244;49.088;11.886;2022-08-04T18:26:26;0.90;;;0.90;;
27424;SDS011;15244;49.088;11.886;2022-08-04T18:31:28;0.77;;;0.77;;
27424;SDS011;15244;49.088;11.886;2022-08-04T18:36:36;0.70;;;0.70;;
27424;SDS011;15244;49.088;11.886;2022-08-04T18:41:38;2.55;;;0.80;;
27424;SDS011;15244;49.088;11.886;2022-08-04T18:47:00;2.22;;;1.00;;
27424;SDS011;15244;49.088;11.886;2022-08-04T18:52:23;1.20;;;0.95;;
27424;SDS011;15244;49.088;11.886;2022-08-04T18:57:25;1.10;;;1.00;;
27424;SDS011;15244;49.088;11.886;2022-08-04T19:02:51;1.70;;;1.48;;
27424;SDS011;15244;49.088;11.886;2022-08-04T19:07:53;1.42;;;1.10;;
27424;SDS011;15244;49.088;11.886;2022-08-04T19:13:16;1.52;;;1.02;;
27424;SDS011;15244;49.088;11.886;2022-08-04T19:18:27;1.13;;;1.02;;
27424;SDS011;15244;49.088;11.886;2022-08-04T19:23:30;0.80;;;0.80;;
27424;SDS011;15244;49.088;11.886;2022-08-04T19:28:52;1.10;;;1.10;;
27424;SDS011;15244;49.088;11.886;2022-08-04T19:33:57;1.00;;;1.00;;
27424;SDS011;15244;49.088;11.886;2022-08-04T19:39:08;1.20;;;1.00;;
27424;SDS011;15244;49.088;11.886;2022-08-04T19:44:41;1.40;;;1.30;;
27424;SDS011;15244;49.088;11.886;2022-08-04T19:50:10;1.80;;;1.70;;
27424;SDS011;15244;49.088;11.886;2022-08-04T19:55:17;2.45;;;1.90;;
27424;SDS011;15244;49.088;11.886;2022-08-04T20:00:37;1.95;;;1.85;;
27424;SDS011;15244;49.088;11.886;2022-08-04T20:05:51;2.85;;;1.48;;
27424;SDS011;15244;49.088;11.886;2022-08-04T20:11:01;1.40;;;1.30;;
27424;SDS011;15244;49.088;11.886;2022-08-04T20:16:05;2.63;;;1.10;;
27424;SDS011;15244;49.088;11.886;2022-08-04T20:21:28;1.30;;;1.20;;
27424;SDS011;15244;49.088;11.886;2022-08-04T20:26:50;3.40;;;1.20;;
27424;SDS011;15244;49.088;11.886;2022-08-04T20:31:51;1.08;;;1.00;;
27424;SDS011;15244;49.088;11.886;2022-08-04T20:37:09;2.70;;;0.90;;
27424;SDS011;15244;49.088;11.886;2022-08-04T20:42:13;2.10;;;1.40;;
27424;SDS011;15244;49.088;11.886;2022-08-04T20:47:15;1.65;;;1.13;;
27424;SDS011;15244;49.088;11.886;2022-08-04T20:52:22;1.90;;;1.10;;
27424;SDS011;15244;49.088;11.886;2022-08-04T20:57:27;2.50;;;1.10;;
27424;SDS011;15244;49.088;11.886;2022-08-04T21:02:49;2.53;;;1.27;;
27424;SDS011;15244;49.088;11.886;2022-08-04T21:07:51;1.00;;;1.00;;
27424;SDS011;15244;49.088;11.886;2022-08-04T21:12:57;1.20;;;1.00;;
27424;SDS011;15244;49.088;11.886;2022-08-04T21:17:59;5.47;;;1.27;;
27424;SDS011;15244;49.088;11.886;2022-08-04T21:23:06;1.10;;;1.10;;
27424;SDS011;15244;49.088;11.886;2022-08-04T21:28:08;1.38;;;1.27;;
27424;SDS011;15244;49.088;11.886;2022-08-04T21:33:10;2.13;;;1.40;;
27424;SDS011;15244;49.088;11.886;2022-08-04T21:38:14;1.70;;;1.08;;
27424;SDS011;15244;49.088;11.886;2022-08-04T21:43:18;1.25;;;1.00;;
27424;SDS011;15244;49.088;11.886;2022-08-04T21:48:20;1.45;;;1.40;;
27424;SDS011;15244;49.088;11.886;2022-08-04T21:53:22;1.27;;;1.00;;
27424;SDS011;15244;49.088;11.886;2022-08-04T21:58:28;1.58;;;1.48;;
27424;SDS011;15244;49.088;11.886;2022-08-04T22:03:38;1.55;;;1.45;;
27424;SDS011;15244;49.088;11.886;2022-08-04T22:08:57;1.48;;;1.15;;
27424;SDS011;15244;49.088;11.886;2022-08-04T22:14:06;1.20;;;1.20;;
27424;SDS011;15244;49.088;11.886;2022-08-04T22:19:15;1.83;;;1.40;;
27424;SDS011;15244;49.088;11.886;2022-08-04T22:24:29;1.17;;;1.17;;
27424;SDS011;15244;49.088;11.886;2022-08-04T22:29:32;1.27;;;1.20;;
27424;SDS011;15244;49.088;11.886;2022-08-04T22:34:39;1.30;;;1.20;;
27424;SDS011;15244;49.088;11.886;2022-08-04T22:39:53;2.15;;;1.20;;
27424;SDS011;15244;49.088;11.886;2022-08-04T22:44:57;1.33;;;1.25;;
27424;SDS011;15244;49.088;11.886;2022-08-04T22:50:02;1.63;;;1.30;;
27424;SDS011;15244;49.088;11.886;2022-08-04T22:55:25;1.63;;;1.52;;
27424;SDS011;15244;49.088;11.886;2022-08-04T23:00:49;2.38;;;1.23;;
27424;SDS011;15244;49.088;11.886;2022-08-04T23:06:01;1.33;;;1.20;;
27424;SDS011;15244;49.088;11.886;2022-08-04T23:11:07;1.42;;;1.42;;
27424;SDS011;15244;49.088;11.886;2022-08-04T23:16:10;1.50;;;1.40;;
27424;SDS011;15244;49.088;11.886;2022-08-04T23:21:14;1.42;;;1.33;;
27424;SDS011;15244;49.088;11.886;2022-08-04T23:26:17;1.48;;;1.38;;
27424;SDS011;15244;49.088;11.886;2022-08-04T23:31:28;1.70;;;1.52;;
27424;SDS011;15244;49.088;11.886;2022-08-04T23:36:42;2.17;;;1.50;;
27424;SDS011;15244;49.088;11.886;2022-08-04T23:41:47;2.35;;;1.45;;
27424;SDS011;15244;49.088;11.886;2022-08-04T23:46:58;1.40;;;1.30;;
27424;SDS011;15244;49.088;11.886;2022-08-04T23:52:04;1.60;;;1.50;;
27424;SDS011;15244;49.088;11.886;2022-08-04T23:57:10;1.65;;;1.55;;
